sensor_id;sensor_type;location;lat;lon;timestamp;pressure;altitude;pressure_sealevel;temperature;humidity
74336;BME280;62755;-33.398;-70.572;2023-05-10T00:01:47;93163.00;;;24.70;24.26
74336;BME280;62755;-33.398;-70.572;2023-05-10T00:04:37;93183.97;;;24.84;23.69
74336;BME280;62755;-33.398;-70.572;2023-05-10T00:07:27;93175.22;;;24.63;23.53
74336;BME280;62755;-33.398;-70.572;2023-05-10T00:10:16;93179.44;;;24.48;23.27
74336;BME280;62755;-33.398;-70.572;2023-05-10T00:13:06;93164.50;;;24.60;23.65
74336;BME280;62755;-33.398;-70.572;2023-05-10T00:15:57;93170.97;;;24.46;24.07
74336;BME280;62755;-33.398;-70.572;2023-05-10T00:18:47;93175.72;;;24.45;23.71
74336;BME280;62755;-33.398;-70.572;2023-05-10T00:21:37;93174.44;;;24.29;24.25
74336;BME280;62755;-33.398;-70.572;2023-05-10T00:24:26;93160.47;;;24.27;23.53
74336;BME280;62755;-33.398;-70.572;2023-05-10T00:27:16;93193.69;;;24.79;23.08
74336;BME280;62755;-33.398;-70.572;2023-05-10T00:30:07;93195.44;;;24.99;22.90
74336;BME280;62755;-33.398;-70.572;2023-05-10T00:32:58;93187.47;;;24.90;21.62
74336;BME280;62755;-33.398;-70.572;2023-05-10T00:35:48;93182.19;;;24.64;22.66
74336;BME280;62755;-33.398;-70.572;2023-05-10T00:38:37;93182.72;;;24.79;22.38
74336;BME280;62755;-33.398;-70.572;2023-05-10T00:41:27;93186.22;;;24.74;21.98
74336;BME280;62755;-33.398;-70.572;2023-05-10T00:44:18;93187.97;;;24.77;22.20
74336;BME280;62755;-33.398;-70.572;2023-05-10T00:47:08;93193.44;;;24.94;22.78
74336;BME280;62755;-33.398;-70.572;2023-05-10T00:50:00;93185.94;;;24.94;21.98
74336;BME280;62755;-33.398;-70.572;2023-05-10T00:52:49;93179.97;;;24.96;23.06
74336;BME280;62755;-33.398;-70.572;2023-05-10T00:55:39;93191.19;;;25.09;23.43
74336;BME280;62755;-33.398;-70.572;2023-05-10T00:58:29;93189.97;;;24.88;23.08
74336;BME280;62755;-33.398;-70.572;2023-05-10T01:01:19;93191.91;;;24.71;23.41
74336;BME280;62755;-33.398;-70.572;2023-05-10T01:04:09;93180.91;;;24.37;23.23
74336;BME280;62755;-33.398;-70.572;2023-05-10T01:07:01;93186.41;;;24.26;23.54
74336;BME280;62755;-33.398;-70.572;2023-05-10T01:09:51;93200.81;;;24.10;23.43
74336;BME280;62755;-33.398;-70.572;2023-05-10T01:12:42;93201.97;;;23.93;24.02
74336;BME280;62755;-33.398;-70.572;2023-05-10T01:15:32;93183.03;;;23.89;23.73
74336;BME280;62755;-33.398;-70.572;2023-05-10T01:18:22;93212.78;;;24.13;23.07
74336;BME280;62755;-33.398;-70.572;2023-05-10T01:21:19;93214.31;;;24.19;23.06
74336;BME280;62755;-33.398;-70.572;2023-05-10T01:24:32;93215.06;;;24.31;22.67
74336;BME280;62755;-33.398;-70.572;2023-05-10T01:27:49;93182.19;;;23.61;23.27
74336;BME280;62755;-33.398;-70.572;2023-05-10T01:31:04;93212.69;;;23.96;22.93
74336;BME280;62755;-33.398;-70.572;2023-05-10T01:34:00;93211.66;;;23.88;22.80
74336;BME280;62755;-33.398;-70.572;2023-05-10T01:36:54;93217.38;;;23.85;22.46
74336;BME280;62755;-33.398;-70.572;2023-05-10T01:39:47;93204.69;;;23.87;23.21
74336;BME280;62755;-33.398;-70.572;2023-05-10T01:42:43;93212.63;;;23.74;23.20
74336;BME280;62755;-33.398;-70.572;2023-05-10T01:45:39;93207.03;;;23.52;23.15
74336;BME280;62755;-33.398;-70.572;2023-05-10T01:48:31;93212.84;;;23.23;22.89
74336;BME280;62755;-33.398;-70.572;2023-05-10T01:51:25;93216.44;;;23.40;22.68
74336;BME280;62755;-33.398;-70.572;2023-05-10T01:54:19;93219.91;;;23.35;23.21
74336;BME280;62755;-33.398;-70.572;2023-05-10T01:57:09;93215.66;;;23.34;23.50
74336;BME280;62755;-33.398;-70.572;2023-05-10T02:00:02;93208.44;;;23.31;23.35
74336;BME280;62755;-33.398;-70.572;2023-05-10T02:02:52;93223.22;;;23.55;23.06
74336;BME280;62755;-33.398;-70.572;2023-05-10T02:05:44;93216.84;;;23.70;22.90
74336;BME280;62755;-33.398;-70.572;2023-05-10T02:08:37;93220.00;;;23.57;22.54
74336;BME280;62755;-33.398;-70.572;2023-05-10T02:11:29;93213.28;;;23.52;22.82
74336;BME280;62755;-33.398;-70.572;2023-05-10T02:14:20;93220.91;;;23.43;22.98
74336;BME280;62755;-33.398;-70.572;2023-05-10T02:17:12;93208.06;;;23.54;22.72
74336;BME280;62755;-33.398;-70.572;2023-05-10T02:20:03;93213.66;;;23.34;22.86
74336;BME280;62755;-33.398;-70.572;2023-05-10T02:22:55;93221.44;;;23.47;21.97
74336;BME280;62755;-33.398;-70.572;2023-05-10T02:25:48;93203.09;;;23.22;22.67
74336;BME280;62755;-33.398;-70.572;2023-05-10T02:28:39;93217.31;;;23.26;22.25
74336;BME280;62755;-33.398;-70.572;2023-05-10T02:31:30;93220.50;;;23.13;22.64
74336;BME280;62755;-33.398;-70.572;2023-05-10T02:34:20;93229.09;;;23.01;23.04
74336;BME280;62755;-33.398;-70.572;2023-05-10T02:37:10;93225.72;;;23.17;22.36
74336;BME280;62755;-33.398;-70.572;2023-05-10T02:40:02;93207.72;;;22.99;23.29
74336;BME280;62755;-33.398;-70.572;2023-05-10T02:42:55;93215.91;;;22.99;22.89
74336;BME280;62755;-33.398;-70.572;2023-05-10T02:45:47;93218.34;;;22.92;23.39
74336;BME280;62755;-33.398;-70.572;2023-05-10T02:48:37;93220.22;;;23.11;23.09
74336;BME280;62755;-33.398;-70.572;2023-05-10T02:51:30;93211.22;;;23.42;22.64
74336;BME280;62755;-33.398;-70.572;2023-05-10T02:54:23;93198.50;;;23.02;23.12
74336;BME280;62755;-33.398;-70.572;2023-05-10T02:57:24;93214.16;;;23.33;22.97
74336;BME280;62755;-33.398;-70.572;2023-05-10T03:00:17;93210.22;;;23.45;23.07
74336;BME280;62755;-33.398;-70.572;2023-05-10T03:03:07;93216.28;;;23.54;22.87
74336;BME280;62755;-33.398;-70.572;2023-05-10T03:05:56;93207.81;;;23.58;23.15
74336;BME280;62755;-33.398;-70.572;2023-05-10T03:08:46;93206.41;;;23.74;23.30
74336;BME280;62755;-33.398;-70.572;2023-05-10T03:11:47;93204.69;;;23.82;22.76
74336;BME280;62755;-33.398;-70.572;2023-05-10T03:14:49;93215.16;;;23.83;22.73
74336;BME280;62755;-33.398;-70.572;2023-05-10T03:17:52;93201.69;;;23.74;22.88
74336;BME280;62755;-33.398;-70.572;2023-05-10T03:20:48;93219.09;;;23.82;22.70
74336;BME280;62755;-33.398;-70.572;2023-05-10T03:23:42;93183.13;;;23.47;23.09
74336;BME280;62755;-33.398;-70.572;2023-05-10T03:26:33;93221.66;;;23.43;22.63
74336;BME280;62755;-33.398;-70.572;2023-05-10T03:29:26;93227.41;;;23.09;23.02
74336;BME280;62755;-33.398;-70.572;2023-05-10T03:32:16;93227.94;;;23.13;22.99
74336;BME280;62755;-33.398;-70.572;2023-05-10T03:35:09;93224.31;;;23.27;23.21
74336;BME280;62755;-33.398;-70.572;2023-05-10T03:37:59;93215.06;;;23.24;22.59
74336;BME280;62755;-33.398;-70.572;2023-05-10T03:40:49;93229.84;;;23.32;22.68
74336;BME280;62755;-33.398;-70.572;2023-05-10T03:43:39;93223.94;;;23.14;22.76
74336;BME280;62755;-33.398;-70.572;2023-05-10T03:46:28;93221.31;;;23.25;22.89
74336;BME280;62755;-33.398;-70.572;2023-05-10T03:49:18;93220.69;;;23.10;22.98
74336;BME280;62755;-33.398;-70.572;2023-05-10T03:52:09;93224.22;;;23.16;23.16
74336;BME280;62755;-33.398;-70.572;2023-05-10T03:54:59;93223.59;;;22.95;23.31
74336;BME280;62755;-33.398;-70.572;2023-05-10T03:57:49;93220.16;;;23.06;23.37
74336;BME280;62755;-33.398;-70.572;2023-05-10T04:00:40;93222.50;;;23.18;23.49
74336;BME280;62755;-33.398;-70.572;2023-05-10T04:03:32;93219.50;;;23.16;23.48
74336;BME280;62755;-33.398;-70.572;2023-05-10T04:06:23;93215.47;;;23.12;23.38
74336;BME280;62755;-33.398;-70.572;2023-05-10T04:09:14;93209.84;;;23.21;23.22
74336;BME280;62755;-33.398;-70.572;2023-05-10T04:12:04;93219.50;;;23.16;23.21
74336;BME280;62755;-33.398;-70.572;2023-05-10T04:14:54;93213.78;;;23.20;23.02
74336;BME280;62755;-33.398;-70.572;2023-05-10T04:17:44;93227.31;;;22.98;22.60
74336;BME280;62755;-33.398;-70.572;2023-05-10T04:20:34;93198.03;;;22.73;22.65
74336;BME280;62755;-33.398;-70.572;2023-05-10T04:23:23;93219.84;;;22.61;22.66
74336;BME280;62755;-33.398;-70.572;2023-05-10T04:26:15;93217.66;;;22.45;22.58
74336;BME280;62755;-33.398;-70.572;2023-05-10T04:29:05;93219.78;;;22.30;22.25
74336;BME280;62755;-33.398;-70.572;2023-05-10T04:31:55;93208.78;;;22.50;22.22
74336;BME280;62755;-33.398;-70.572;2023-05-10T04:34:45;93207.91;;;22.64;20.73
74336;BME280;62755;-33.398;-70.572;2023-05-10T04:37:35;93216.91;;;22.70;19.79
74336;BME280;62755;-33.398;-70.572;2023-05-10T04:40:24;93187.09;;;22.73;19.89
74336;BME280;62755;-33.398;-70.572;2023-05-10T04:43:15;93215.69;;;23.03;20.01
74336;BME280;62755;-33.398;-70.572;2023-05-10T04:46:06;93184.81;;;22.97;19.08
74336;BME280;62755;-33.398;-70.572;2023-05-10T04:48:55;93207.00;;;23.10;18.99
74336;BME280;62755;-33.398;-70.572;2023-05-10T04:51:45;93203.09;;;23.16;18.95
74336;BME280;62755;-33.398;-70.572;2023-05-10T04:54:34;93198.38;;;23.17;18.85
74336;BME280;62755;-33.398;-70.572;2023-05-10T04:57:24;93193.22;;;22.88;18.57
74336;BME280;62755;-33.398;-70.572;2023-05-10T05:00:18;93198.88;;;22.84;20.46
74336;BME280;62755;-33.398;-70.572;2023-05-10T05:03:07;93189.84;;;22.73;20.03
74336;BME280;62755;-33.398;-70.572;2023-05-10T05:05:57;93192.06;;;22.43;20.96
74336;BME280;62755;-33.398;-70.572;2023-05-10T05:08:46;93187.88;;;21.96;21.92
74336;BME280;62755;-33.398;-70.572;2023-05-10T05:11:36;93186.47;;;21.80;21.89
74336;BME280;62755;-33.398;-70.572;2023-05-10T05:14:27;93174.44;;;21.72;22.11
74336;BME280;62755;-33.398;-70.572;2023-05-10T05:17:18;93171.94;;;21.49;22.20
74336;BME280;62755;-33.398;-70.572;2023-05-10T05:20:09;93169.63;;;21.62;22.57
74336;BME280;62755;-33.398;-70.572;2023-05-10T05:22:58;93164.84;;;21.57;22.11
74336;BME280;62755;-33.398;-70.572;2023-05-10T05:25:48;93172.63;;;21.64;22.08
74336;BME280;62755;-33.398;-70.572;2023-05-10T05:28:38;93171.94;;;21.49;22.03
74336;BME280;62755;-33.398;-70.572;2023-05-10T05:31:27;93157.06;;;21.50;21.94
74336;BME280;62755;-33.398;-70.572;2023-05-10T05:34:19;93155.00;;;21.45;21.15
74336;BME280;62755;-33.398;-70.572;2023-05-10T05:37:13;93160.19;;;21.63;21.00
74336;BME280;62755;-33.398;-70.572;2023-05-10T05:40:03;93150.16;;;21.74;20.93
74336;BME280;62755;-33.398;-70.572;2023-05-10T05:42:53;93133.53;;;21.78;20.13
74336;BME280;62755;-33.398;-70.572;2023-05-10T05:45:42;93137.41;;;21.66;20.43
74336;BME280;62755;-33.398;-70.572;2023-05-10T05:48:32;93171.19;;;21.89;20.51
74336;BME280;62755;-33.398;-70.572;2023-05-10T05:51:23;93165.97;;;21.70;20.75
74336;BME280;62755;-33.398;-70.572;2023-05-10T05:54:13;93166.31;;;21.78;21.20
74336;BME280;62755;-33.398;-70.572;2023-05-10T05:57:03;93171.50;;;21.76;21.44
74336;BME280;62755;-33.398;-70.572;2023-05-10T05:59:52;93167.81;;;21.79;21.32
74336;BME280;62755;-33.398;-70.572;2023-05-10T06:02:42;93167.75;;;21.94;21.42
74336;BME280;62755;-33.398;-70.572;2023-05-10T06:05:32;93183.41;;;21.93;21.51
74336;BME280;62755;-33.398;-70.572;2023-05-10T06:08:23;93170.13;;;22.06;21.48
74336;BME280;62755;-33.398;-70.572;2023-05-10T06:11:12;93177.94;;;21.93;22.01
74336;BME280;62755;-33.398;-70.572;2023-05-10T06:14:02;93179.97;;;21.98;21.74
74336;BME280;62755;-33.398;-70.572;2023-05-10T06:16:53;93171.44;;;21.91;22.07
74336;BME280;62755;-33.398;-70.572;2023-05-10T06:19:43;93172.53;;;21.78;22.19
74336;BME280;62755;-33.398;-70.572;2023-05-10T06:22:33;93165.50;;;21.72;22.21
74336;BME280;62755;-33.398;-70.572;2023-05-10T06:25:24;93156.91;;;21.79;21.87
74336;BME280;62755;-33.398;-70.572;2023-05-10T06:28:14;93166.53;;;21.74;22.19
74336;BME280;62755;-33.398;-70.572;2023-05-10T06:31:03;93149.06;;;21.66;21.71
74336;BME280;62755;-33.398;-70.572;2023-05-10T06:33:53;93130.88;;;21.38;21.59
74336;BME280;62755;-33.398;-70.572;2023-05-10T06:36:43;93154.84;;;21.74;21.25
74336;BME280;62755;-33.398;-70.572;2023-05-10T06:39:32;93146.56;;;21.83;21.39
74336;BME280;62755;-33.398;-70.572;2023-05-10T06:42:24;93144.50;;;22.04;21.60
74336;BME280;62755;-33.398;-70.572;2023-05-10T06:45:14;93154.47;;;22.32;21.43
74336;BME280;62755;-33.398;-70.572;2023-05-10T06:48:04;93157.88;;;22.27;20.65
74336;BME280;62755;-33.398;-70.572;2023-05-10T06:50:54;93145.88;;;22.19;20.99
74336;BME280;62755;-33.398;-70.572;2023-05-10T06:53:43;93148.25;;;22.32;21.26
74336;BME280;62755;-33.398;-70.572;2023-05-10T06:56:33;93142.13;;;22.42;20.89
74336;BME280;62755;-33.398;-70.572;2023-05-10T06:59:24;93119.63;;;22.27;21.08
74336;BME280;62755;-33.398;-70.572;2023-05-10T07:02:14;93139.66;;;22.44;21.26
74336;BME280;62755;-33.398;-70.572;2023-05-10T07:05:04;93118.00;;;22.41;21.52
74336;BME280;62755;-33.398;-70.572;2023-05-10T07:07:53;93116.03;;;22.41;21.14
74336;BME280;62755;-33.398;-70.572;2023-05-10T07:10:43;93120.09;;;22.20;20.55
74336;BME280;62755;-33.398;-70.572;2023-05-10T07:13:33;93109.25;;;22.31;18.89
74336;BME280;62755;-33.398;-70.572;2023-05-10T07:16:25;93107.59;;;22.45;18.26
74336;BME280;62755;-33.398;-70.572;2023-05-10T07:19:14;93115.34;;;22.46;19.22
74336;BME280;62755;-33.398;-70.572;2023-05-10T07:22:04;93123.97;;;22.39;19.22
74336;BME280;62755;-33.398;-70.572;2023-05-10T07:24:54;93127.00;;;22.47;19.30
74336;BME280;62755;-33.398;-70.572;2023-05-10T07:27:43;93124.06;;;22.50;19.40
74336;BME280;62755;-33.398;-70.572;2023-05-10T07:30:35;93127.84;;;22.58;19.46
74336;BME280;62755;-33.398;-70.572;2023-05-10T07:33:26;93113.88;;;22.56;19.42
74336;BME280;62755;-33.398;-70.572;2023-05-10T07:36:16;93125.91;;;22.64;19.33
74336;BME280;62755;-33.398;-70.572;2023-05-10T07:39:05;93133.31;;;22.58;19.79
74336;BME280;62755;-33.398;-70.572;2023-05-10T07:41:55;93118.34;;;22.48;19.40
74336;BME280;62755;-33.398;-70.572;2023-05-10T07:44:45;93131.72;;;22.46;19.53
74336;BME280;62755;-33.398;-70.572;2023-05-10T07:47:34;93137.63;;;22.39;18.70
74336;BME280;62755;-33.398;-70.572;2023-05-10T07:50:26;93132.59;;;22.32;18.26
74336;BME280;62755;-33.398;-70.572;2023-05-10T07:53:15;93130.25;;;22.20;18.68
74336;BME280;62755;-33.398;-70.572;2023-05-10T07:56:20;93112.28;;;21.82;19.22
74336;BME280;62755;-33.398;-70.572;2023-05-10T07:59:14;93139.81;;;22.04;19.64
74336;BME280;62755;-33.398;-70.572;2023-05-10T08:02:03;93138.84;;;22.07;19.72
74336;BME280;62755;-33.398;-70.572;2023-05-10T08:04:53;93144.81;;;22.11;19.85
74336;BME280;62755;-33.398;-70.572;2023-05-10T08:07:45;93141.94;;;22.20;20.01
74336;BME280;62755;-33.398;-70.572;2023-05-10T08:10:34;93146.66;;;22.20;20.27
74336;BME280;62755;-33.398;-70.572;2023-05-10T08:13:24;93146.91;;;22.22;20.33
74336;BME280;62755;-33.398;-70.572;2023-05-10T08:16:13;93150.72;;;22.30;20.05
74336;BME280;62755;-33.398;-70.572;2023-05-10T08:19:03;93148.97;;;22.27;19.70
74336;BME280;62755;-33.398;-70.572;2023-05-10T08:21:53;93124.47;;;22.12;19.58
74336;BME280;62755;-33.398;-70.572;2023-05-10T08:24:45;93146.97;;;22.27;19.47
74336;BME280;62755;-33.398;-70.572;2023-05-10T08:27:34;93145.75;;;22.28;19.39
74336;BME280;62755;-33.398;-70.572;2023-05-10T08:30:24;93145.03;;;22.08;19.43
74336;BME280;62755;-33.398;-70.572;2023-05-10T08:33:14;93136.38;;;21.83;19.73
74336;BME280;62755;-33.398;-70.572;2023-05-10T08:36:03;93140.13;;;21.86;19.68
74336;BME280;62755;-33.398;-70.572;2023-05-10T08:38:53;93137.25;;;21.75;19.74
74336;BME280;62755;-33.398;-70.572;2023-05-10T08:41:47;93135.47;;;21.92;19.54
74336;BME280;62755;-33.398;-70.572;2023-05-10T08:44:37;93135.34;;;21.81;19.58
74336;BME280;62755;-33.398;-70.572;2023-05-10T08:47:27;93101.44;;;21.67;19.81
74336;BME280;62755;-33.398;-70.572;2023-05-10T08:50:18;93123.06;;;21.71;20.15
74336;BME280;62755;-33.398;-70.572;2023-05-10T08:53:11;93122.69;;;21.58;20.21
74336;BME280;62755;-33.398;-70.572;2023-05-10T08:56:02;93117.16;;;21.52;20.00
74336;BME280;62755;-33.398;-70.572;2023-05-10T08:58:53;93127.44;;;21.63;19.71
74336;BME280;62755;-33.398;-70.572;2023-05-10T09:01:44;93106.84;;;21.62;19.33
74336;BME280;62755;-33.398;-70.572;2023-05-10T09:04:35;93128.09;;;21.78;19.05
74336;BME280;62755;-33.398;-70.572;2023-05-10T09:07:24;93135.72;;;21.94;18.73
74336;BME280;62755;-33.398;-70.572;2023-05-10T09:10:14;93129.91;;;22.07;18.50
74336;BME280;62755;-33.398;-70.572;2023-05-10T09:13:04;93140.22;;;22.23;17.99
74336;BME280;62755;-33.398;-70.572;2023-05-10T09:15:56;93142.03;;;22.31;17.68
74336;BME280;62755;-33.398;-70.572;2023-05-10T09:18:46;93143.00;;;22.28;16.99
74336;BME280;62755;-33.398;-70.572;2023-05-10T09:21:37;93139.78;;;22.30;18.05
74336;BME280;62755;-33.398;-70.572;2023-05-10T09:24:27;93130.97;;;22.15;19.50
74336;BME280;62755;-33.398;-70.572;2023-05-10T09:27:16;93143.25;;;21.99;19.65
74336;BME280;62755;-33.398;-70.572;2023-05-10T09:30:07;93155.13;;;21.76;18.79
74336;BME280;62755;-33.398;-70.572;2023-05-10T09:32:59;93155.97;;;21.82;18.64
74336;BME280;62755;-33.398;-70.572;2023-05-10T09:35:52;93144.47;;;21.78;18.26
74336;BME280;62755;-33.398;-70.572;2023-05-10T09:38:48;93156.91;;;21.79;18.21
74336;BME280;62755;-33.398;-70.572;2023-05-10T09:41:38;93142.72;;;21.55;18.24
74336;BME280;62755;-33.398;-70.572;2023-05-10T09:44:31;93147.78;;;21.62;18.16
74336;BME280;62755;-33.398;-70.572;2023-05-10T09:47:21;93141.13;;;21.68;18.50
74336;BME280;62755;-33.398;-70.572;2023-05-10T09:50:13;93119.59;;;21.50;18.39
74336;BME280;62755;-33.398;-70.572;2023-05-10T09:53:03;93159.88;;;21.35;19.41
74336;BME280;62755;-33.398;-70.572;2023-05-10T09:55:53;93158.97;;;21.44;19.13
74336;BME280;62755;-33.398;-70.572;2023-05-10T09:58:43;93161.44;;;21.42;18.94
74336;BME280;62755;-33.398;-70.572;2023-05-10T10:01:34;93159.47;;;21.42;18.72
74336;BME280;62755;-33.398;-70.572;2023-05-10T10:04:23;93159.91;;;21.61;18.85
74336;BME280;62755;-33.398;-70.572;2023-05-10T10:07:15;93154.31;;;21.70;18.60
74336;BME280;62755;-33.398;-70.572;2023-05-10T10:10:11;93151.72;;;21.61;18.90
74336;BME280;62755;-33.398;-70.572;2023-05-10T10:13:02;93154.72;;;21.63;18.39
74336;BME280;62755;-33.398;-70.572;2023-05-10T10:15:52;93151.63;;;21.50;18.09
74336;BME280;62755;-33.398;-70.572;2023-05-10T10:18:43;93155.97;;;21.42;18.30
74336;BME280;62755;-33.398;-70.572;2023-05-10T10:21:33;93150.53;;;21.42;18.31
74336;BME280;62755;-33.398;-70.572;2023-05-10T10:24:25;93166.91;;;21.42;18.40
74336;BME280;62755;-33.398;-70.572;2023-05-10T10:27:21;93164.66;;;21.40;18.27
74336;BME280;62755;-33.398;-70.572;2023-05-10T10:30:20;93166.75;;;21.31;18.60
74336;BME280;62755;-33.398;-70.572;2023-05-10T10:33:36;93146.31;;;21.21;18.37
74336;BME280;62755;-33.398;-70.572;2023-05-10T10:36:28;93178.34;;;21.46;18.57
74336;BME280;62755;-33.398;-70.572;2023-05-10T10:39:20;93171.72;;;21.52;18.76
74336;BME280;62755;-33.398;-70.572;2023-05-10T10:42:14;93163.47;;;21.47;19.14
74336;BME280;62755;-33.398;-70.572;2023-05-10T10:45:14;93151.63;;;21.50;19.13
74336;BME280;62755;-33.398;-70.572;2023-05-10T10:48:24;93166.06;;;21.56;19.15
74336;BME280;62755;-33.398;-70.572;2023-05-10T10:51:14;93134.69;;;21.26;19.37
74336;BME280;62755;-33.398;-70.572;2023-05-10T10:54:10;93166.81;;;21.56;19.45
74336;BME280;62755;-33.398;-70.572;2023-05-10T10:57:14;93173.22;;;21.53;19.42
74336;BME280;62755;-33.398;-70.572;2023-05-10T11:00:24;93180.94;;;21.55;19.63
74336;BME280;62755;-33.398;-70.572;2023-05-10T11:03:14;93195.81;;;21.54;19.30
74336;BME280;62755;-33.398;-70.572;2023-05-10T11:06:05;93195.63;;;21.57;19.03
74336;BME280;62755;-33.398;-70.572;2023-05-10T11:08:56;93203.44;;;21.70;18.89
74336;BME280;62755;-33.398;-70.572;2023-05-10T11:11:53;93197.72;;;21.68;18.96
74336;BME280;62755;-33.398;-70.572;2023-05-10T11:14:50;93205.78;;;21.57;18.35
74336;BME280;62755;-33.398;-70.572;2023-05-10T11:17:40;93190.91;;;21.58;18.33
74336;BME280;62755;-33.398;-70.572;2023-05-10T11:20:39;93167.22;;;21.29;17.85
74336;BME280;62755;-33.398;-70.572;2023-05-10T11:23:32;93192.81;;;21.32;17.75
74336;BME280;62755;-33.398;-70.572;2023-05-10T11:26:23;93188.38;;;21.34;17.84
74336;BME280;62755;-33.398;-70.572;2023-05-10T11:29:13;93191.56;;;21.33;17.76
74336;BME280;62755;-33.398;-70.572;2023-05-10T11:32:05;93178.97;;;21.35;17.59
74336;BME280;62755;-33.398;-70.572;2023-05-10T11:34:55;93184.75;;;21.43;17.24
74336;BME280;62755;-33.398;-70.572;2023-05-10T11:37:48;93180.19;;;21.54;17.19
74336;BME280;62755;-33.398;-70.572;2023-05-10T11:40:38;93188.78;;;21.67;17.00
74336;BME280;62755;-33.398;-70.572;2023-05-10T11:43:29;93183.53;;;21.64;17.26
74336;BME280;62755;-33.398;-70.572;2023-05-10T11:46:19;93185.56;;;21.69;17.55
74336;BME280;62755;-33.398;-70.572;2023-05-10T11:49:11;93182.31;;;21.65;17.23
74336;BME280;62755;-33.398;-70.572;2023-05-10T11:52:07;93172.16;;;21.45;18.41
74336;BME280;62755;-33.398;-70.572;2023-05-10T11:54:58;93169.28;;;21.14;18.35
74336;BME280;62755;-33.398;-70.572;2023-05-10T11:57:48;93180.25;;;21.40;18.74
74336;BME280;62755;-33.398;-70.572;2023-05-10T12:00:40;93161.56;;;21.33;17.50
74336;BME280;62755;-33.398;-70.572;2023-05-10T12:03:30;93166.06;;;21.56;16.81
74336;BME280;62755;-33.398;-70.572;2023-05-10T12:06:22;93181.34;;;21.88;16.73
74336;BME280;62755;-33.398;-70.572;2023-05-10T12:09:11;93175.16;;;21.88;16.63
74336;BME280;62755;-33.398;-70.572;2023-05-10T12:12:03;93192.13;;;21.97;17.62
74336;BME280;62755;-33.398;-70.572;2023-05-10T12:14:52;93198.91;;;21.81;19.26
74336;BME280;62755;-33.398;-70.572;2023-05-10T12:17:41;93201.81;;;21.58;20.25
74336;BME280;62755;-33.398;-70.572;2023-05-10T12:20:32;93212.59;;;21.47;19.73
74336;BME280;62755;-33.398;-70.572;2023-05-10T12:23:24;93231.00;;;21.32;19.64
74336;BME280;62755;-33.398;-70.572;2023-05-10T12:26:15;93234.66;;;21.29;20.07
74336;BME280;62755;-33.398;-70.572;2023-05-10T12:29:16;93247.22;;;21.21;18.96
74336;BME280;62755;-33.398;-70.572;2023-05-10T12:32:05;93251.28;;;21.11;20.14
74336;BME280;62755;-33.398;-70.572;2023-05-10T12:34:55;93252.91;;;21.03;20.77
74336;BME280;62755;-33.398;-70.572;2023-05-10T12:37:46;93235.53;;;20.56;22.63
74336;BME280;62755;-33.398;-70.572;2023-05-10T12:40:38;93247.34;;;20.82;22.33
74336;BME280;62755;-33.398;-70.572;2023-05-10T12:43:27;93255.41;;;20.91;23.22
74336;BME280;62755;-33.398;-70.572;2023-05-10T12:46:17;93260.97;;;20.82;24.23
74336;BME280;62755;-33.398;-70.572;2023-05-10T12:49:07;93266.16;;;20.95;24.25
74336;BME280;62755;-33.398;-70.572;2023-05-10T12:51:57;93259.94;;;20.94;24.33
74336;BME280;62755;-33.398;-70.572;2023-05-10T12:54:47;93255.56;;;21.17;24.05
74336;BME280;62755;-33.398;-70.572;2023-05-10T12:57:38;93262.63;;;21.24;24.04
74336;BME280;62755;-33.398;-70.572;2023-05-10T13:00:27;93261.56;;;21.36;23.96
74336;BME280;62755;-33.398;-70.572;2023-05-10T13:03:17;93261.09;;;21.57;23.06
74336;BME280;62755;-33.398;-70.572;2023-05-10T13:06:07;93259.84;;;21.93;21.83
74336;BME280;62755;-33.398;-70.572;2023-05-10T13:08:56;93256.56;;;22.09;22.58
74336;BME280;62755;-33.398;-70.572;2023-05-10T13:11:46;93253.91;;;22.40;20.45
74336;BME280;62755;-33.398;-70.572;2023-05-10T13:14:37;93255.19;;;22.70;21.52
74336;BME280;62755;-33.398;-70.572;2023-05-10T13:17:27;93261.47;;;23.08;21.36
74336;BME280;62755;-33.398;-70.572;2023-05-10T13:20:16;93260.88;;;23.66;21.91
74336;BME280;62755;-33.398;-70.572;2023-05-10T13:23:06;93255.66;;;24.21;20.91
74336;BME280;62755;-33.398;-70.572;2023-05-10T13:25:56;93260.47;;;24.71;19.70
74336;BME280;62755;-33.398;-70.572;2023-05-10T13:28:45;93273.75;;;25.11;19.27
74336;BME280;62755;-33.398;-70.572;2023-05-10T13:31:37;93275.69;;;25.77;17.46
74336;BME280;62755;-33.398;-70.572;2023-05-10T13:34:27;93254.88;;;26.03;18.60
74336;BME280;62755;-33.398;-70.572;2023-05-10T13:37:17;93278.81;;;26.77;18.40
74336;BME280;62755;-33.398;-70.572;2023-05-10T13:40:07;93268.50;;;26.83;18.45
74336;BME280;62755;-33.398;-70.572;2023-05-10T13:42:57;93279.91;;;26.98;18.21
74336;BME280;62755;-33.398;-70.572;2023-05-10T13:45:47;93284.63;;;27.03;18.39
74336;BME280;62755;-33.398;-70.572;2023-05-10T13:48:38;93283.78;;;27.14;17.89
74336;BME280;62755;-33.398;-70.572;2023-05-10T13:51:28;93270.78;;;26.79;17.27
74336;BME280;62755;-33.398;-70.572;2023-05-10T13:54:18;93258.94;;;26.89;16.86
74336;BME280;62755;-33.398;-70.572;2023-05-10T13:57:09;93289.09;;;27.41;16.88
74336;BME280;62755;-33.398;-70.572;2023-05-10T14:00:00;93288.81;;;27.99;16.16
74336;BME280;62755;-33.398;-70.572;2023-05-10T14:02:50;93288.78;;;28.23;15.50
74336;BME280;62755;-33.398;-70.572;2023-05-10T14:05:41;93296.75;;;28.08;16.07
74336;BME280;62755;-33.398;-70.572;2023-05-10T14:08:31;93302.72;;;28.12;16.31
74336;BME280;62755;-33.398;-70.572;2023-05-10T14:11:21;93304.97;;;27.83;16.84
74336;BME280;62755;-33.398;-70.572;2023-05-10T14:14:11;93301.88;;;28.17;16.57
74336;BME280;62755;-33.398;-70.572;2023-05-10T14:17:01;93281.88;;;28.35;16.81
74336;BME280;62755;-33.398;-70.572;2023-05-10T14:19:50;93298.25;;;28.70;16.26
74336;BME280;62755;-33.398;-70.572;2023-05-10T14:22:42;93312.81;;;28.89;16.02
74336;BME280;62755;-33.398;-70.572;2023-05-10T14:25:31;93314.97;;;28.96;15.78
74336;BME280;62755;-33.398;-70.572;2023-05-10T14:28:21;93320.88;;;28.87;16.36
74336;BME280;62755;-33.398;-70.572;2023-05-10T14:31:11;93318.47;;;29.15;17.27
74336;BME280;62755;-33.398;-70.572;2023-05-10T14:34:01;93296.44;;;29.28;16.93